Time;durP1;ratioP1;P1;durP2;ratioP2;P2;SDS_P1;SDS_P2;PMS_P1;PMS_P2;Temp;Humidity;BMP_temperature;BMP_pressure;BME280_temperature;BME280_humidity;BME280_pressure;Samples;Min_cycle;Max_cycle;Signal;HPM_P1;HPM_P2
2020/12/28 00:02:11;;;;;;;0.30;0.25;;;;;;;;;;5012673;28;20100;-71
2020/12/28 00:04:38;;;;;;;1.08;0.47;;;;;;;;;;5012283;28;20041;-71
2020/12/28 00:07:05;;;;;;;0.60;0.43;;;;;;;;;;5012294;28;20442;-71
2020/12/28 00:09:31;;;;;;;0.20;0.20;;;;;;;;;;5011375;28;20488;-71
2020/12/28 00:11:58;;;;;;;0.82;0.30;;;;;;;;;;5012434;28;20080;-71
2020/12/28 00:14:24;;;;;;;0.50;0.40;;;;;;;;;;5012350;28;20050;-71
2020/12/28 00:16:51;;;;;;;2.40;0.90;;;;;;;;;;5012278;28;20128;-71
2020/12/28 00:19:17;;;;;;;0.28;0.25;;;;;;;;;;5012466;28;20073;-71
2020/12/28 00:21:44;;;;;;;0.68;0.40;;;;;;;;;;5012435;28;20054;-71
2020/12/28 00:24:13;;;;;;;0.68;0.38;;;;;;;;;;5012139;28;20042;-71
2020/12/28 00:26:40;;;;;;;0.40;0.40;;;;;;;;;;5010837;28;20077;-71
2020/12/28 00:29:06;;;;;;;0.73;0.40;;;;;;;;;;5012297;28;20440;-72
2020/12/28 00:31:33;;;;;;;0.50;0.40;;;;;;;;;;5012141;28;20053;-71
2020/12/28 00:34:00;;;;;;;0.32;0.28;;;;;;;;;;5012301;28;20421;-71
2020/12/28 00:36:26;;;;;;;0.68;0.50;;;;;;;;;;5011794;28;20064;-71
2020/12/28 00:38:52;;;;;;;0.50;0.50;;;;;;;;;;5011997;28;20570;-71
2020/12/28 00:41:18;;;;;;;0.55;0.32;;;;;;;;;;5012218;28;20123;-71
2020/12/28 00:43:45;;;;;;;1.42;0.50;;;;;;;;;;5011998;28;20109;-71
2020/12/28 00:46:12;;;;;;;3.08;0.35;;;;;;;;;;5011913;28;20046;-71
2020/12/28 00:48:39;;;;;;;0.75;0.43;;;;;;;;;;5010982;28;20046;-71
2020/12/28 00:51:05;;;;;;;1.67;0.60;;;;;;;;;;5027377;28;20054;-71
2020/12/28 00:53:31;;;;;;;0.47;0.40;;;;;;;;;;5011969;28;20096;-71
2020/12/28 00:55:58;;;;;;;0.90;0.40;;;;;;;;;;5011755;28;20092;-71
2020/12/28 00:58:24;;;;;;;0.95;0.50;;;;;;;;;;5012029;28;20107;-71
2020/12/28 01:00:50;;;;;;;0.70;0.63;;;;;;;;;;5012009;28;20045;-71
2020/12/28 01:03:16;;;;;;;0.88;0.60;;;;;;;;;;5010903;28;20050;-71
2020/12/28 01:05:43;;;;;;;1.17;0.60;;;;;;;;;;5012828;28;20500;-71
2020/12/28 01:08:09;;;;;;;0.82;0.40;;;;;;;;;;5015885;28;20139;-71
2020/12/28 01:10:35;;;;;;;0.40;0.38;;;;;;;;;;5014541;28;20046;-71
2020/12/28 01:13:02;;;;;;;0.55;0.45;;;;;;;;;;5014669;28;20100;-71
2020/12/28 01:15:28;;;;;;;0.45;0.45;;;;;;;;;;5014744;28;20570;-71
2020/12/28 01:17:54;;;;;;;0.40;0.40;;;;;;;;;;5016027;28;20069;-71
2020/12/28 01:20:21;;;;;;;0.40;0.30;;;;;;;;;;5015644;28;20497;-71
2020/12/28 01:22:47;;;;;;;0.30;0.30;;;;;;;;;;5033827;28;20397;-71
2020/12/28 01:25:14;;;;;;;1.85;0.40;;;;;;;;;;5015465;28;20096;-71
2020/12/28 01:27:40;;;;;;;1.70;0.47;;;;;;;;;;5015614;28;20049;-71
2020/12/28 01:30:06;;;;;;;0.98;0.50;;;;;;;;;;5015416;28;20050;-71
2020/12/28 01:32:32;;;;;;;0.75;0.45;;;;;;;;;;5014088;28;20050;-71
2020/12/28 01:34:59;;;;;;;0.60;0.57;;;;;;;;;;5015262;28;20131;-71
2020/12/28 01:37:25;;;;;;;1.05;0.60;;;;;;;;;;5015087;28;20107;-71
2020/12/28 01:39:51;;;;;;;0.90;0.60;;;;;;;;;;5015264;28;20045;-71
2020/12/28 01:42:18;;;;;;;0.80;0.52;;;;;;;;;;5013731;28;20077;-71
2020/12/28 01:44:44;;;;;;;0.50;0.50;;;;;;;;;;5013896;28;20041;-71
2020/12/28 01:47:10;;;;;;;2.13;0.60;;;;;;;;;;5013733;28;20049;-71
2020/12/28 01:49:36;;;;;;;0.63;0.40;;;;;;;;;;5013996;28;20050;-71
2020/12/28 01:52:02;;;;;;;1.42;0.65;;;;;;;;;;5030366;28;20497;-71
2020/12/28 01:54:29;;;;;;;1.17;0.68;;;;;;;;;;5014777;28;20081;-71
2020/12/28 01:56:56;;;;;;;0.70;0.55;;;;;;;;;;5030169;28;20061;-71
2020/12/28 01:59:25;;;;;;;0.52;0.45;;;;;;;;;;5014813;28;20505;-71
2020/12/28 02:01:53;;;;;;;0.50;0.35;;;;;;;;;;5014737;28;20045;-71
2020/12/28 02:04:19;;;;;;;0.52;0.40;;;;;;;;;;5014472;28;20481;-71
2020/12/28 02:06:46;;;;;;;0.40;0.40;;;;;;;;;;5014507;28;20062;-71
2020/12/28 02:09:13;;;;;;;0.38;0.38;;;;;;;;;;5014377;28;20070;-71
2020/12/28 02:11:39;;;;;;;0.47;0.40;;;;;;;;;;5014621;28;20489;-71
2020/12/28 02:14:05;;;;;;;0.30;0.30;;;;;;;;;;5014634;28;20046;-71
2020/12/28 02:16:32;;;;;;;4.45;0.70;;;;;;;;;;5006330;28;20781;-71
2020/12/28 02:18:59;;;;;;;0.63;0.40;;;;;;;;;;4993592;28;20050;-71
2020/12/28 02:21:25;;;;;;;1.60;0.40;;;;;;;;;;5004499;28;20583;-71
2020/12/28 02:23:51;;;;;;;0.70;0.40;;;;;;;;;;5011649;28;20125;-71
2020/12/28 02:26:17;;;;;;;0.93;0.50;;;;;;;;;;5012112;28;20134;-71
2020/12/28 02:28:43;;;;;;;1.33;0.35;;;;;;;;;;5014371;28;20112;-71
2020/12/28 02:31:09;;;;;;;0.47;0.47;;;;;;;;;;5014090;28;20089;-71
2020/12/28 02:33:40;;;;;;;0.90;0.40;;;;;;;;;;5014138;28;20108;-71
2020/12/28 02:36:08;;;;;;;0.20;0.20;;;;;;;;;;5013737;28;20045;-71
2020/12/28 02:38:37;;;;;;;0.95;0.82;;;;;;;;;;5029110;28;20481;-71
2020/12/28 02:41:04;;;;;;;0.40;0.40;;;;;;;;;;5012904;28;20550;-71
2020/12/28 02:43:30;;;;;;;0.60;0.30;;;;;;;;;;5014143;28;20112;-71
2020/12/28 02:45:57;;;;;;;2.85;0.52;;;;;;;;;;5013671;28;20046;-71
2020/12/28 02:48:24;;;;;;;0.60;0.30;;;;;;;;;;5013990;28;20050;-71
2020/12/28 02:50:50;;;;;;;0.52;0.30;;;;;;;;;;5012551;28;20081;-72
2020/12/28 02:53:17;;;;;;;0.20;0.17;;;;;;;;;;5028989;28;20092;-71
2020/12/28 02:55:43;;;;;;;0.20;0.20;;;;;;;;;;5013549;28;20124;-71
2020/12/28 02:58:09;;;;;;;0.50;0.22;;;;;;;;;;5013733;28;20050;-71
2020/12/28 03:00:35;;;;;;;0.60;0.32;;;;;;;;;;5028882;28;20120;-71
2020/12/28 03:03:01;;;;;;;1.15;0.20;;;;;;;;;;5013744;28;20100;-71
2020/12/28 03:05:27;;;;;;;0.70;0.32;;;;;;;;;;5013086;28;20104;-71
2020/12/28 03:07:53;;;;;;;0.30;0.30;;;;;;;;;;5014083;28;20429;-72
2020/12/28 03:10:20;;;;;;;0.55;0.35;;;;;;;;;;5013537;28;20054;-72
2020/12/28 03:12:46;;;;;;;2.13;0.30;;;;;;;;;;5013366;28;20102;-72
2020/12/28 03:15:12;;;;;;;0.40;0.28;;;;;;;;;;5013207;28;20046;-72
2020/12/28 03:17:39;;;;;;;0.77;0.32;;;;;;;;;;5013482;28;20422;-72
2020/12/28 03:20:05;;;;;;;0.20;0.20;;;;;;;;;;5013389;28;20513;-73
2020/12/28 03:22:31;;;;;;;0.70;0.55;;;;;;;;;;5013071;28;20046;-72
2020/12/28 03:24:57;;;;;;;0.43;0.30;;;;;;;;;;5013158;28;20112;-72
2020/12/28 03:27:23;;;;;;;1.77;0.32;;;;;;;;;;5012471;28;20108;-72
2020/12/28 03:29:49;;;;;;;0.20;0.20;;;;;;;;;;5012924;28;20049;-72
2020/12/28 03:32:15;;;;;;;0.10;0.10;;;;;;;;;;5012955;28;20084;-72
2020/12/28 03:34:41;;;;;;;0.20;0.20;;;;;;;;;;5013129;28;20104;-73
2020/12/28 03:37:07;;;;;;;0.30;0.30;;;;;;;;;;5012852;28;20081;-73
2020/12/28 03:39:33;;;;;;;0.57;0.22;;;;;;;;;;5012992;28;20050;-72
2020/12/28 03:42:00;;;;;;;0.80;0.30;;;;;;;;;;5012853;28;20053;-72
2020/12/28 03:44:26;;;;;;;0.25;0.25;;;;;;;;;;5012598;28;20081;-72
2020/12/28 03:46:52;;;;;;;0.95;0.20;;;;;;;;;;5012703;28;20050;-72
2020/12/28 03:49:18;;;;;;;1.10;0.40;;;;;;;;;;5012908;28;20045;-72
2020/12/28 03:51:44;;;;;;;0.30;0.30;;;;;;;;;;5012758;28;20501;-72
2020/12/28 03:54:10;;;;;;;1.50;0.28;;;;;;;;;;5012732;28;20050;-72
2020/12/28 03:56:36;;;;;;;0.45;0.30;;;;;;;;;;5012338;28;20484;-72
2020/12/28 03:59:02;;;;;;;0.13;0.13;;;;;;;;;;5012688;28;20054;-72
2020/12/28 04:01:28;;;;;;;0.57;0.40;;;;;;;;;;5012493;28;20058;-72
2020/12/28 04:03:55;;;;;;;0.30;0.30;;;;;;;;;;5011610;28;20108;-72
2020/12/28 04:06:21;;;;;;;0.52;0.30;;;;;;;;;;5011980;28;20084;-71
2020/12/28 04:08:47;;;;;;;0.40;0.20;;;;;;;;;;5012746;28;20089;-72
2020/12/28 04:11:13;;;;;;;0.30;0.30;;;;;;;;;;5012355;28;20060;-72
2020/12/28 04:13:39;;;;;;;1.35;0.22;;;;;;;;;;5012468;28;20049;-72
2020/12/28 04:16:05;;;;;;;2.58;0.40;;;;;;;;;;5011995;28;20120;-72
2020/12/28 04:18:31;;;;;;;0.15;0.15;;;;;;;;;;5012419;28;20084;-72
2020/12/28 04:20:57;;;;;;;0.30;0.30;;;;;;;;;;5012323;28;20084;-72
2020/12/28 04:23:23;;;;;;;0.30;0.22;;;;;;;;;;5012240;28;20053;-72
2020/12/28 04:25:49;;;;;;;1.02;0.40;;;;;;;;;;5010725;28;20092;-72
2020/12/28 04:28:15;;;;;;;1.13;0.40;;;;;;;;;;5012230;28;20096;-72
2020/12/28 04:30:41;;;;;;;0.57;0.30;;;;;;;;;;5012323;28;20493;-72
2020/12/28 04:33:07;;;;;;;0.20;0.20;;;;;;;;;;5012136;28;20561;-72
2020/12/28 04:35:33;;;;;;;0.90;0.20;;;;;;;;;;5011777;28;20089;-72
2020/12/28 04:37:59;;;;;;;0.35;0.20;;;;;;;;;;5012305;28;20049;-72
2020/12/28 04:40:25;;;;;;;0.20;0.20;;;;;;;;;;5010734;28;20089;-72
2020/12/28 04:42:53;;;;;;;0.57;0.40;;;;;;;;;;5012141;28;20120;-72
2020/12/28 04:45:19;;;;;;;0.82;0.35;;;;;;;;;;5011571;28;20049;-72
2020/12/28 04:47:45;;;;;;;0.73;0.30;;;;;;;;;;5012059;28;20050;-72
2020/12/28 04:50:11;;;;;;;0.30;0.30;;;;;;;;;;5012013;28;20079;-72
2020/12/28 04:52:37;;;;;;;1.85;0.30;;;;;;;;;;5027150;28;20089;-72
2020/12/28 04:55:03;;;;;;;0.20;0.20;;;;;;;;;;5012029;28;20041;-72
2020/12/28 04:57:30;;;;;;;1.13;0.20;;;;;;;;;;5011651;28;20104;-72
2020/12/28 04:59:56;;;;;;;0.45;0.30;;;;;;;;;;5011802;28;20054;-72
2020/12/28 05:02:25;;;;;;;1.55;0.30;;;;;;;;;;5011938;28;20046;-71
2020/12/28 05:04:52;;;;;;;0.52;0.45;;;;;;;;;;5010379;28;20046;-72
2020/12/28 05:07:18;;;;;;;0.20;0.20;;;;;;;;;;5011749;28;20053;-72
2020/12/28 05:09:44;;;;;;;1.65;0.40;;;;;;;;;;5011619;28;20089;-72
2020/12/28 05:12:10;;;;;;;1.52;0.40;;;;;;;;;;5011868;28;20464;-71
2020/12/28 05:14:37;;;;;;;0.65;0.40;;;;;;;;;;5011545;28;20100;-72
2020/12/28 05:17:04;;;;;;;0.60;0.40;;;;;;;;;;5011584;28;20096;-72
2020/12/28 05:19:30;;;;;;;0.50;0.30;;;;;;;;;;5011639;28;20096;-72
2020/12/28 05:21:57;;;;;;;0.38;0.30;;;;;;;;;;5011805;28;20108;-72
2020/12/28 05:24:23;;;;;;;0.52;0.25;;;;;;;;;;5011472;28;20054;-71
2020/12/28 05:26:50;;;;;;;0.32;0.30;;;;;;;;;;5011479;28;20050;-72
2020/12/28 05:29:18;;;;;;;1.10;0.60;;;;;;;;;;5011518;28;20069;-72
2020/12/28 05:31:44;;;;;;;2.78;0.50;;;;;;;;;;5011615;28;20448;-72
2020/12/28 05:34:18;;;;;;;3.35;0.38;;;;;;;;;;5011630;28;20128;-72
2020/12/28 05:36:46;;;;;;;0.30;0.30;;;;;;;;;;5011267;28;20108;-72
2020/12/28 05:39:14;;;;;;;0.25;0.25;;;;;;;;;;5011608;28;20049;-72
2020/12/28 05:41:53;;;;;;;0.30;0.30;;;;;;;;;;5010341;28;20081;-72
2020/12/28 05:44:25;;;;;;;0.77;0.40;;;;;;;;;;5011527;28;20057;-72
2020/12/28 05:47:18;;;;;;;1.25;0.30;;;;;;;;;;5011118;28;20505;-72
2020/12/28 05:49:46;;;;;;;0.55;0.30;;;;;;;;;;5003071;28;20046;-72
2020/12/28 05:52:13;;;;;;;0.88;0.40;;;;;;;;;;5013706;28;20050;-71
2020/12/28 05:54:39;;;;;;;0.70;0.40;;;;;;;;;;5014700;28;20068;-72
2020/12/28 05:57:06;;;;;;;0.38;0.30;;;;;;;;;;5014842;28;20524;-71
2020/12/28 05:59:32;;;;;;;0.73;0.50;;;;;;;;;;5014797;28;20096;-71
2020/12/28 06:02:02;;;;;;;1.00;0.28;;;;;;;;;;5014681;28;20092;-71
2020/12/28 06:04:29;;;;;;;0.40;0.38;;;;;;;;;;5014499;28;20049;-72
2020/12/28 06:06:59;;;;;;;1.27;0.40;;;;;;;;;;5014514;28;20505;-72
2020/12/28 06:09:25;;;;;;;0.52;0.45;;;;;;;;;;5014642;28;20409;-72
2020/12/28 06:12:09;;;;;;;0.32;0.20;;;;;;;;;;5013725;28;20096;-72
2020/12/28 06:14:36;;;;;;;0.82;0.40;;;;;;;;;;5013587;28;20097;-72
2020/12/28 06:17:07;;;;;;;0.25;0.25;;;;;;;;;;5014211;28;20103;-71
2020/12/28 06:19:33;;;;;;;1.15;0.25;;;;;;;;;;5014349;28;20085;-73
2020/12/28 06:21:59;;;;;;;0.70;0.50;;;;;;;;;;5014475;28;20563;-72
2020/12/28 06:24:33;;;;;;;1.90;0.47;;;;;;;;;;5014209;28;20673;-72
2020/12/28 06:27:09;;;;;;;2.25;1.02;;;;;;;;;;5014107;28;20128;-72
2020/12/28 06:29:36;;;;;;;0.20;0.20;;;;;;;;;;5014319;28;20108;-72
2020/12/28 06:32:15;;;;;;;0.85;0.40;;;;;;;;;;5014240;28;20085;-72
2020/12/28 06:34:43;;;;;;;0.30;0.17;;;;;;;;;;5014127;28;20050;-73
2020/12/28 06:37:09;;;;;;;0.60;0.40;;;;;;;;;;5013556;28;20081;-72
2020/12/28 06:39:36;;;;;;;0.50;0.32;;;;;;;;;;5013690;28;20042;-73
2020/12/28 06:42:12;;;;;;;1.25;0.50;;;;;;;;;;5013725;28;20107;-72
2020/12/28 06:44:40;;;;;;;2.28;0.57;;;;;;;;;;5012127;28;20052;-72
2020/12/28 06:47:20;;;;;;;0.85;0.70;;;;;;;;;;5013448;28;20076;-72
2020/12/28 06:49:46;;;;;;;0.63;0.20;;;;;;;;;;5013151;28;20495;-72
2020/12/28 06:52:12;;;;;;;0.63;0.35;;;;;;;;;;5013550;28;20057;-72
2020/12/28 06:54:39;;;;;;;2.20;1.33;;;;;;;;;;5013236;28;20409;-72
2020/12/28 06:57:06;;;;;;;2.55;1.65;;;;;;;;;;5013342;28;20643;-72
2020/12/28 06:59:33;;;;;;;2.00;1.25;;;;;;;;;;5013281;28;20042;-72
2020/12/28 07:01:59;;;;;;;1.00;0.90;;;;;;;;;;5013117;28;20478;-72
2020/12/28 07:04:37;;;;;;;2.45;0.88;;;;;;;;;;5012840;28;20112;-72
2020/12/28 07:07:05;;;;;;;1.77;0.63;;;;;;;;;;5013086;28;20050;-72
2020/12/28 07:09:31;;;;;;;0.80;0.50;;;;;;;;;;5012824;28;20487;-71
2020/12/28 07:12:13;;;;;;;1.15;0.80;;;;;;;;;;5013532;28;20058;-72
2020/12/28 07:14:39;;;;;;;1.67;0.60;;;;;;;;;;5013697;28;20054;-72
2020/12/28 07:17:06;;;;;;;0.55;0.50;;;;;;;;;;5013302;28;20090;-72
2020/12/28 07:19:32;;;;;;;1.35;0.50;;;;;;;;;;5012162;28;20053;-72
2020/12/28 07:21:58;;;;;;;1.70;0.50;;;;;;;;;;5013385;28;20057;-71
2020/12/28 07:24:24;;;;;;;0.60;0.47;;;;;;;;;;5013120;28;20112;-72
2020/12/28 07:26:50;;;;;;;1.83;1.10;;;;;;;;;;5011926;28;20133;-71
2020/12/28 07:29:18;;;;;;;2.65;0.52;;;;;;;;;;5013254;28;20058;-72
2020/12/28 07:31:45;;;;;;;0.82;0.50;;;;;;;;;;5013214;28;20054;-71
2020/12/28 07:34:18;;;;;;;2.75;1.73;;;;;;;;;;5013107;28;20084;-73
2020/12/28 07:36:47;;;;;;;2.00;1.33;;;;;;;;;;5012680;28;20046;-73
2020/12/28 07:39:14;;;;;;;1.60;1.20;;;;;;;;;;5012969;28;20046;-73
2020/12/28 07:41:41;;;;;;;0.95;0.73;;;;;;;;;;5012871;28;20049;-73
2020/12/28 07:44:10;;;;;;;1.50;0.80;;;;;;;;;;5011313;28;20104;-73
2020/12/28 07:47:03;;;;;;;1.50;0.90;;;;;;;;;;5009452;28;20077;-73
2020/12/28 07:49:31;;;;;;;1.23;0.80;;;;;;;;;;5009861;28;20783;-73
2020/12/28 07:52:07;;;;;;;1.20;0.55;;;;;;;;;;5009776;28;20508;-73
2020/12/28 07:55:02;;;;;;;0.50;0.47;;;;;;;;;;5010731;28;20058;-73
2020/12/28 07:57:33;;;;;;;1.48;0.77;;;;;;;;;;5009091;28;20531;-74
2020/12/28 08:00:05;;;;;;;1.00;0.70;;;;;;;;;;5009729;28;20108;-74
2020/12/28 08:02:36;;;;;;;0.75;0.55;;;;;;;;;;4994415;28;20068;-74
2020/12/28 08:05:02;;;;;;;0.82;0.65;;;;;;;;;;5024781;28;20077;-74
2020/12/28 08:07:33;;;;;;;1.45;0.50;;;;;;;;;;5008189;28;20054;-75
2020/12/28 08:09:59;;;;;;;0.85;0.60;;;;;;;;;;5010476;28;20108;-74
2020/12/28 08:12:25;;;;;;;0.45;0.38;;;;;;;;;;5014839;28;20100;-74
2020/12/28 08:14:53;;;;;;;0.45;0.45;;;;;;;;;;4993160;28;20449;-74
2020/12/28 08:17:25;;;;;;;0.77;0.40;;;;;;;;;;5010539;28;20046;-74
2020/12/28 08:20:03;;;;;;;0.73;0.40;;;;;;;;;;5010843;28;20394;-74
2020/12/28 08:22:29;;;;;;;1.67;0.55;;;;;;;;;;5010790;28;20485;-74
2020/12/28 08:25:04;;;;;;;0.93;0.40;;;;;;;;;;5010216;28;20127;-75
2020/12/28 08:27:31;;;;;;;1.00;0.40;;;;;;;;;;5008731;28;20108;-74
2020/12/28 08:29:58;;;;;;;8.18;3.75;;;;;;;;;;5009251;28;20054;-73
2020/12/28 08:32:29;;;;;;;19.67;8.07;;;;;;;;;;5009013;28;20056;-73
2020/12/28 08:34:57;;;;;;;8.75;5.05;;;;;;;;;;5010268;28;20081;-74
2020/12/28 08:37:31;;;;;;;4.10;2.50;;;;;;;;;;5008397;28;20543;-73
2020/12/28 08:39:57;;;;;;;2.63;2.13;;;;;;;;;;5009034;28;20500;-74
2020/12/28 08:42:34;;;;;;;2.58;1.33;;;;;;;;;;4995820;28;20050;-73
2020/12/28 08:45:03;;;;;;;1.60;1.40;;;;;;;;;;5021961;28;20045;-72
2020/12/28 08:47:30;;;;;;;1.42;1.10;;;;;;;;;;5029155;28;20053;-72
2020/12/28 08:49:57;;;;;;;3.20;1.13;;;;;;;;;;5011647;28;20076;-70
2020/12/28 08:52:24;;;;;;;2.85;0.85;;;;;;;;;;5009402;28;20402;-71
2020/12/28 08:54:53;;;;;;;0.90;0.80;;;;;;;;;;4991581;28;20050;-71
2020/12/28 08:57:24;;;;;;;0.75;0.52;;;;;;;;;;5008096;28;20065;-69
2020/12/28 08:59:53;;;;;;;1.08;0.50;;;;;;;;;;5009757;28;20151;-70
2020/12/28 09:02:27;;;;;;;2.35;1.30;;;;;;;;;;5009031;28;20050;-70
2020/12/28 09:04:53;;;;;;;2.05;1.40;;;;;;;;;;5009760;28;20050;-70
2020/12/28 09:07:22;;;;;;;1.67;1.00;;;;;;;;;;5008942;28;20524;-69
2020/12/28 09:09:49;;;;;;;0.95;0.75;;;;;;;;;;5008390;28;20061;-70
2020/12/28 09:12:18;;;;;;;1.60;0.60;;;;;;;;;;5009179;28;20064;-72
2020/12/28 09:14:45;;;;;;;1.08;0.90;;;;;;;;;;5008665;28;20056;-71
2020/12/28 09:17:16;;;;;;;2.38;0.70;;;;;;;;;;5009321;28;20571;-70
2020/12/28 09:19:43;;;;;;;1.20;0.70;;;;;;;;;;5009991;28;20049;-70
2020/12/28 09:22:10;;;;;;;1.45;0.65;;;;;;;;;;5003627;28;20129;-72
2020/12/28 09:24:38;;;;;;;1.15;0.60;;;;;;;;;;5007563;28;20086;-71
2020/12/28 09:27:07;;;;;;;1.20;0.70;;;;;;;;;;5011425;28;20131;-71
2020/12/28 09:29:34;;;;;;;0.85;0.77;;;;;;;;;;5012374;28;20054;-71
2020/12/28 09:32:00;;;;;;;1.63;0.80;;;;;;;;;;5012991;28;20045;-74
2020/12/28 09:34:27;;;;;;;0.90;0.80;;;;;;;;;;5012679;28;20064;-71
2020/12/28 09:37:00;;;;;;;0.88;0.70;;;;;;;;;;5013200;28;20057;-71
2020/12/28 09:39:28;;;;;;;1.17;0.90;;;;;;;;;;5013286;28;20061;-72
2020/12/28 09:41:56;;;;;;;1.13;0.70;;;;;;;;;;5012246;28;20523;-70
2020/12/28 09:44:23;;;;;;;2.63;1.20;;;;;;;;;;5012219;28;20129;-70
2020/12/28 09:46:51;;;;;;;1.65;0.82;;;;;;;;;;5012515;28;20128;-70
2020/12/28 09:49:18;;;;;;;1.85;0.95;;;;;;;;;;5011821;28;20527;-70
2020/12/28 09:51:46;;;;;;;2.03;1.20;;;;;;;;;;5013043;28;20401;-71
2020/12/28 09:54:13;;;;;;;4.20;1.15;;;;;;;;;;5012948;28;20053;-70
2020/12/28 09:57:04;;;;;;;1.55;0.98;;;;;;;;;;5012841;28;20499;-69
2020/12/28 09:59:39;;;;;;;1.13;0.80;;;;;;;;;;5026576;28;20731;-69
2020/12/28 10:02:06;;;;;;;1.75;0.65;;;;;;;;;;5013906;28;20509;-70
2020/12/28 10:04:32;;;;;;;1.10;0.70;;;;;;;;;;5012702;28;20107;-70
2020/12/28 10:06:59;;;;;;;0.93;0.80;;;;;;;;;;5012685;28;20160;-70
2020/12/28 10:09:25;;;;;;;0.90;0.68;;;;;;;;;;5012677;28;20053;-71
2020/12/28 10:11:51;;;;;;;5.75;1.10;;;;;;;;;;5012556;28;20050;-70
2020/12/28 10:14:17;;;;;;;1.65;0.93;;;;;;;;;;5010748;28;20054;-71
2020/12/28 10:16:44;;;;;;;1.05;0.85;;;;;;;;;;5012391;28;20467;-70
2020/12/28 10:19:10;;;;;;;1.30;0.90;;;;;;;;;;5012655;28;20630;-70
2020/12/28 10:21:36;;;;;;;2.20;1.30;;;;;;;;;;5011516;28;20050;-70
2020/12/28 10:24:03;;;;;;;1.45;1.17;;;;;;;;;;5012234;28;20054;-70
2020/12/28 10:26:29;;;;;;;2.38;1.70;;;;;;;;;;5011441;28;20771;-71
2020/12/28 10:28:56;;;;;;;7.80;1.88;;;;;;;;;;5010688;28;20054;-71
2020/12/28 10:31:22;;;;;;;3.70;2.00;;;;;;;;;;5011265;28;20116;-70
2020/12/28 10:33:53;;;;;;;1.98;1.70;;;;;;;;;;5012306;28;20054;-70
2020/12/28 10:36:29;;;;;;;3.65;1.90;;;;;;;;;;5011531;28;20116;-71
2020/12/28 10:38:59;;;;;;;4.82;2.00;;;;;;;;;;5009722;28;20124;-72
2020/12/28 10:41:26;;;;;;;2.58;1.73;;;;;;;;;;5010899;28;20082;-71
2020/12/28 10:43:53;;;;;;;2.15;1.98;;;;;;;;;;5005597;28;20042;-71
2020/12/28 10:46:19;;;;;;;2.13;1.92;;;;;;;;;;5024982;28;20359;-70
2020/12/28 10:48:46;;;;;;;3.28;1.90;;;;;;;;;;5011918;28;20065;-70
2020/12/28 10:51:12;;;;;;;4.07;2.15;;;;;;;;;;5011153;28;20050;-70
2020/12/28 10:53:39;;;;;;;3.30;1.95;;;;;;;;;;5011666;28;20632;-71
2020/12/28 10:56:07;;;;;;;5.53;1.80;;;;;;;;;;5011617;28;20453;-70
2020/12/28 10:58:36;;;;;;;2.15;1.95;;;;;;;;;;5010819;28;20069;-71
2020/12/28 11:01:05;;;;;;;3.38;2.45;;;;;;;;;;5011974;28;20097;-71
2020/12/28 11:03:32;;;;;;;2.47;2.15;;;;;;;;;;5011771;28;20405;-71
2020/12/28 11:06:00;;;;;;;2.88;1.67;;;;;;;;;;5010885;28;20080;-71
2020/12/28 11:08:26;;;;;;;4.28;1.90;;;;;;;;;;5011513;28;20097;-70
2020/12/28 11:10:52;;;;;;;3.13;2.03;;;;;;;;;;5011559;28;20060;-70
2020/12/28 11:13:18;;;;;;;3.05;2.63;;;;;;;;;;5011582;28;20509;-70
2020/12/28 11:15:44;;;;;;;2.40;2.08;;;;;;;;;;5011138;28;20045;-70
2020/12/28 11:18:10;;;;;;;2.55;2.25;;;;;;;;;;5011073;28;20053;-72
2020/12/28 11:20:36;;;;;;;3.10;1.90;;;;;;;;;;5011504;28;20145;-73
2020/12/28 11:23:02;;;;;;;4.13;3.08;;;;;;;;;;5011324;28;20045;-70
2020/12/28 11:25:29;;;;;;;4.03;2.85;;;;;;;;;;4999480;28;20081;-69
2020/12/28 11:27:55;;;;;;;4.72;3.10;;;;;;;;;;5015061;28;20084;-70
2020/12/28 11:30:21;;;;;;;7.00;3.45;;;;;;;;;;5029759;28;20049;-70
2020/12/28 11:32:47;;;;;;;7.18;4.03;;;;;;;;;;5019123;28;20077;-70
2020/12/28 11:35:13;;;;;;;7.72;3.70;;;;;;;;;;4989637;28;20046;-70
2020/12/28 11:37:39;;;;;;;5.07;3.45;;;;;;;;;;5007670;28;20390;-69
2020/12/28 11:40:05;;;;;;;5.47;3.60;;;;;;;;;;5010434;28;20082;-70
2020/12/28 11:42:32;;;;;;;3.42;2.88;;;;;;;;;;5009153;28;20045;-70
2020/12/28 11:44:58;;;;;;;4.57;3.58;;;;;;;;;;5008839;28;20378;-69
2020/12/28 11:47:24;;;;;;;3.83;3.03;;;;;;;;;;5009005;28;20493;-69
2020/12/28 11:49:50;;;;;;;4.28;2.80;;;;;;;;;;5009534;28;20049;-70
2020/12/28 11:52:17;;;;;;;4.00;2.72;;;;;;;;;;5010397;28;20057;-69
2020/12/28 11:54:44;;;;;;;4.10;2.50;;;;;;;;;;5010415;28;20081;-69
2020/12/28 11:57:10;;;;;;;4.20;2.50;;;;;;;;;;5009857;28;20097;-68
2020/12/28 11:59:36;;;;;;;4.10;2.78;;;;;;;;;;5010430;28;20054;-70
2020/12/28 12:02:05;;;;;;;2.95;2.28;;;;;;;;;;5008886;28;20054;-69
2020/12/28 12:04:50;;;;;;;3.45;2.50;;;;;;;;;;5009755;28;20108;-70
2020/12/28 12:07:23;;;;;;;3.28;2.72;;;;;;;;;;5010134;28;20571;-71
2020/12/28 12:09:50;;;;;;;3.00;2.70;;;;;;;;;;5009557;28;20428;-72
2020/12/28 12:12:17;;;;;;;4.82;3.00;;;;;;;;;;5008461;28;20115;-72
2020/12/28 12:14:43;;;;;;;5.25;3.03;;;;;;;;;;4977005;28;20050;-72
2020/12/28 12:17:09;;;;;;;4.00;2.95;;;;;;;;;;5008798;28;20050;-72
2020/12/28 12:19:36;;;;;;;6.90;3.25;;;;;;;;;;5010526;28;20054;-72
2020/12/28 12:22:02;;;;;;;5.35;3.33;;;;;;;;;;5010489;28;20127;-72
2020/12/28 12:24:28;;;;;;;4.97;3.72;;;;;;;;;;5009610;28;20054;-73
2020/12/28 12:26:54;;;;;;;4.15;3.25;;;;;;;;;;5010239;28;20088;-73
2020/12/28 12:29:21;;;;;;;4.25;3.50;;;;;;;;;;5027035;28;20073;-72
2020/12/28 12:31:51;;;;;;;6.35;4.13;;;;;;;;;;5010360;28;20130;-72
2020/12/28 12:34:17;;;;;;;6.15;4.15;;;;;;;;;;5009046;28;20045;-73
2020/12/28 12:36:44;;;;;;;7.40;4.43;;;;;;;;;;5008072;28;20097;-72
2020/12/28 12:39:10;;;;;;;6.05;4.40;;;;;;;;;;5008395;28;20050;-73
2020/12/28 12:41:36;;;;;;;5.85;4.18;;;;;;;;;;5008646;28;20081;-71
2020/12/28 12:44:02;;;;;;;6.55;4.15;;;;;;;;;;5010310;28;20119;-72
2020/12/28 12:46:28;;;;;;;8.93;5.32;;;;;;;;;;5024781;28;20038;-73
2020/12/28 12:48:54;;;;;;;6.18;4.55;;;;;;;;;;5000808;28;20049;-70
2020/12/28 12:51:22;;;;;;;7.82;4.28;;;;;;;;;;5020513;28;20634;-71
2020/12/28 12:53:48;;;;;;;4.90;3.88;;;;;;;;;;5009496;28;20054;-70
2020/12/28 12:56:19;;;;;;;6.25;3.15;;;;;;;;;;5009635;28;20057;-73
2020/12/28 12:58:45;;;;;;;4.40;3.40;;;;;;;;;;5009692;28;20085;-71
2020/12/28 13:01:11;;;;;;;4.95;3.22;;;;;;;;;;5012349;28;20525;-72
2020/12/28 13:03:37;;;;;;;5.60;3.60;;;;;;;;;;5013354;28;20745;-71
2020/12/28 13:06:03;;;;;;;8.40;4.50;;;;;;;;;;5013454;28;20571;-72
2020/12/28 13:08:30;;;;;;;6.43;3.80;;;;;;;;;;5013737;28;20085;-72
2020/12/28 13:10:56;;;;;;;4.20;3.65;;;;;;;;;;5013687;28;20119;-71
2020/12/28 13:13:22;;;;;;;5.72;4.15;;;;;;;;;;5013562;28;20103;-72
2020/12/28 13:15:48;;;;;;;5.75;4.32;;;;;;;;;;5013072;28;20046;-72
2020/12/28 13:18:14;;;;;;;5.22;3.78;;;;;;;;;;5013863;28;20464;-72
2020/12/28 13:20:40;;;;;;;5.18;3.40;;;;;;;;;;5013242;28;20103;-72
2020/12/28 13:23:07;;;;;;;5.93;3.55;;;;;;;;;;5012127;28;20058;-72
2020/12/28 13:25:33;;;;;;;5.95;3.70;;;;;;;;;;5014865;28;20050;-72
2020/12/28 13:27:59;;;;;;;3.90;3.30;;;;;;;;;;5010937;28;20050;-74
2020/12/28 13:30:35;;;;;;;6.38;4.05;;;;;;;;;;5009185;28;20049;-73
2020/12/28 13:33:02;;;;;;;4.63;2.85;;;;;;;;;;5016102;28;20057;-72
2020/12/28 13:35:29;;;;;;;3.20;2.28;;;;;;;;;;5025292;28;20046;-77
2020/12/28 13:38:00;;;;;;;5.80;2.88;;;;;;;;;;5029729;28;20065;-73
2020/12/28 13:40:29;;;;;;;4.43;2.97;;;;;;;;;;5013653;28;20134;-71
2020/12/28 13:43:05;;;;;;;4.03;2.40;;;;;;;;;;5015262;28;20068;-77
2020/12/28 13:45:32;;;;;;;2.45;2.08;;;;;;;;;;4981089;28;20050;-72
2020/12/28 13:47:58;;;;;;;1.92;1.45;;;;;;;;;;5014919;28;20050;-73
2020/12/28 13:50:24;;;;;;;2.20;1.80;;;;;;;;;;5014738;28;20081;-75
2020/12/28 13:52:52;;;;;;;2.97;1.73;;;;;;;;;;5014576;28;20050;-74
2020/12/28 13:55:18;;;;;;;1.15;0.80;;;;;;;;;;4981831;28;20046;-72
2020/12/28 13:57:44;;;;;;;1.83;1.35;;;;;;;;;;5014094;28;20468;-72
2020/12/28 14:00:10;;;;;;;1.85;1.67;;;;;;;;;;5014562;28;20045;-74
2020/12/28 14:02:36;;;;;;;1.70;1.58;;;;;;;;;;5011498;28;20096;-72
2020/12/28 14:05:04;;;;;;;2.40;1.70;;;;;;;;;;4998002;28;20046;-72
2020/12/28 14:07:31;;;;;;;2.20;2.00;;;;;;;;;;5013238;28;20049;-73
2020/12/28 14:09:57;;;;;;;3.50;2.33;;;;;;;;;;5014424;28;20052;-73
2020/12/28 14:12:23;;;;;;;2.80;2.22;;;;;;;;;;5013594;28;20054;-72
2020/12/28 14:14:50;;;;;;;1.75;1.33;;;;;;;;;;5014393;28;20501;-72
2020/12/28 14:17:16;;;;;;;2.65;1.63;;;;;;;;;;5013929;28;20096;-72
2020/12/28 14:19:45;;;;;;;2.95;1.80;;;;;;;;;;5014439;28;20104;-71
2020/12/28 14:22:11;;;;;;;2.33;1.63;;;;;;;;;;5014457;28;20050;-71
2020/12/28 14:24:37;;;;;;;2.67;1.50;;;;;;;;;;5014048;28;20058;-70
2020/12/28 14:27:03;;;;;;;3.33;1.88;;;;;;;;;;5013151;28;20107;-70
2020/12/28 14:29:29;;;;;;;4.82;2.15;;;;;;;;;;5013952;28;20081;-71
2020/12/28 14:31:55;;;;;;;3.13;1.60;;;;;;;;;;5014248;28;20046;-71
2020/12/28 14:34:22;;;;;;;4.55;1.50;;;;;;;;;;5012642;28;20049;-70
2020/12/28 14:36:52;;;;;;;1.42;1.17;;;;;;;;;;5013786;28;20417;-72
2020/12/28 14:39:18;;;;;;;1.33;0.90;;;;;;;;;;5014052;28;20050;-73
2020/12/28 14:41:45;;;;;;;2.47;1.45;;;;;;;;;;5012675;28;20073;-71
2020/12/28 14:44:11;;;;;;;2.28;1.42;;;;;;;;;;5013147;28;20472;-75
2020/12/28 14:46:37;;;;;;;2.75;1.65;;;;;;;;;;5013479;28;20396;-71